sensor_id;sensor_type;location;lat;lon;timestamp;P1;durP1;ratioP1;P2;durP2;ratioP2
68050;SDS011;54839;51.364;7.246;2023-02-08T00:00:08;13.90;;;11.53;;
68050;SDS011;54839;51.364;7.246;2023-02-08T00:02:34;14.20;;;10.23;;
68050;SDS011;54839;51.364;7.246;2023-02-08T00:04:59;16.33;;;11.10;;
68050;SDS011;54839;51.364;7.246;2023-02-08T00:07:25;15.30;;;11.23;;
68050;SDS011;54839;51.364;7.246;2023-02-08T00:09:50;17.37;;;13.20;;
68050;SDS011;54839;51.364;7.246;2023-02-08T00:12:16;17.07;;;12.37;;
68050;SDS011;54839;51.364;7.246;2023-02-08T00:14:41;14.37;;;10.70;;
68050;SDS011;54839;51.364;7.246;2023-02-08T00:17:07;16.83;;;12.50;;
68050;SDS011;54839;51.364;7.246;2023-02-08T00:19:32;16.87;;;12.20;;
68050;SDS011;54839;51.364;7.246;2023-02-08T00:21:58;15.80;;;11.17;;
68050;SDS011;54839;51.364;7.246;2023-02-08T00:24:23;11.47;;;9.93;;
68050;SDS011;54839;51.364;7.246;2023-02-08T00:26:49;13.17;;;9.97;;
68050;SDS011;54839;51.364;7.246;2023-02-08T00:29:15;11.43;;;10.30;;
68050;SDS011;54839;51.364;7.246;2023-02-08T00:31:40;13.93;;;10.50;;
68050;SDS011;54839;51.364;7.246;2023-02-08T00:34:06;19.90;;;11.17;;
68050;SDS011;54839;51.364;7.246;2023-02-08T00:36:31;13.47;;;10.47;;
68050;SDS011;54839;51.364;7.246;2023-02-08T00:38:57;13.57;;;9.50;;
68050;SDS011;54839;51.364;7.246;2023-02-08T00:41:22;14.07;;;10.30;;
68050;SDS011;54839;51.364;7.246;2023-02-08T00:43:48;13.80;;;10.10;;
68050;SDS011;54839;51.364;7.246;2023-02-08T00:46:13;12.50;;;9.33;;
68050;SDS011;54839;51.364;7.246;2023-02-08T00:48:39;13.43;;;10.10;;
68050;SDS011;54839;51.364;7.246;2023-02-08T00:51:08;14.63;;;10.67;;
68050;SDS011;54839;51.364;7.246;2023-02-08T00:53:38;16.77;;;10.10;;
68050;SDS011;54839;51.364;7.246;2023-02-08T00:56:05;13.47;;;10.90;;
68050;SDS011;54839;51.364;7.246;2023-02-08T00:58:32;15.87;;;11.47;;
68050;SDS011;54839;51.364;7.246;2023-02-08T01:00:59;14.27;;;9.50;;
68050;SDS011;54839;51.364;7.246;2023-02-08T01:03:24;13.00;;;8.77;;
68050;SDS011;54839;51.364;7.246;2023-02-08T01:05:50;11.10;;;8.00;;
68050;SDS011;54839;51.364;7.246;2023-02-08T01:08:16;14.90;;;10.10;;
68050;SDS011;54839;51.364;7.246;2023-02-08T01:10:44;16.50;;;10.70;;
68050;SDS011;54839;51.364;7.246;2023-02-08T01:13:10;11.97;;;8.43;;
68050;SDS011;54839;51.364;7.246;2023-02-08T01:15:35;14.60;;;9.20;;
68050;SDS011;54839;51.364;7.246;2023-02-08T01:18:01;11.50;;;9.20;;
68050;SDS011;54839;51.364;7.246;2023-02-08T01:20:27;14.13;;;9.40;;
68050;SDS011;54839;51.364;7.246;2023-02-08T01:22:54;13.83;;;9.90;;
68050;SDS011;54839;51.364;7.246;2023-02-08T01:25:20;12.83;;;10.37;;
68050;SDS011;54839;51.364;7.246;2023-02-08T01:27:45;13.27;;;9.40;;
68050;SDS011;54839;51.364;7.246;2023-02-08T01:30:11;11.53;;;8.20;;
68050;SDS011;54839;51.364;7.246;2023-02-08T01:32:37;11.30;;;8.27;;
68050;SDS011;54839;51.364;7.246;2023-02-08T01:35:03;11.43;;;8.30;;
68050;SDS011;54839;51.364;7.246;2023-02-08T01:37:28;9.07;;;7.27;;
68050;SDS011;54839;51.364;7.246;2023-02-08T01:39:54;11.27;;;8.67;;
68050;SDS011;54839;51.364;7.246;2023-02-08T01:42:20;10.30;;;7.63;;
68050;SDS011;54839;51.364;7.246;2023-02-08T01:47:47;9.43;;;7.57;;
68050;SDS011;54839;51.364;7.246;2023-02-08T01:50:17;10.70;;;8.60;;
68050;SDS011;54839;51.364;7.246;2023-02-08T01:52:46;15.17;;;9.23;;
68050;SDS011;54839;51.364;7.246;2023-02-08T01:55:16;12.83;;;9.17;;
68050;SDS011;54839;51.364;7.246;2023-02-08T01:57:45;9.93;;;7.73;;
68050;SDS011;54839;51.364;7.246;2023-02-08T02:00:17;12.00;;;7.63;;
68050;SDS011;54839;51.364;7.246;2023-02-08T02:02:47;8.93;;;6.70;;
68050;SDS011;54839;51.364;7.246;2023-02-08T02:05:17;11.30;;;8.37;;
68050;SDS011;54839;51.364;7.246;2023-02-08T02:07:45;10.50;;;7.63;;
68050;SDS011;54839;51.364;7.246;2023-02-08T02:10:26;10.23;;;8.73;;
68050;SDS011;54839;51.364;7.246;2023-02-08T02:12:54;7.90;;;6.87;;
68050;SDS011;54839;51.364;7.246;2023-02-08T02:15:22;12.10;;;8.07;;
68050;SDS011;54839;51.364;7.246;2023-02-08T02:17:48;12.07;;;7.63;;
68050;SDS011;54839;51.364;7.246;2023-02-08T02:28:54;15.37;;;8.67;;
68050;SDS011;54839;51.364;7.246;2023-02-08T02:42:21;9.07;;;7.60;;
68050;SDS011;54839;51.364;7.246;2023-02-08T02:45:25;13.20;;;8.33;;
68050;SDS011;54839;51.364;7.246;2023-02-08T02:48:11;10.10;;;7.40;;
68050;SDS011;54839;51.364;7.246;2023-02-08T02:53:16;10.97;;;6.80;;
68050;SDS011;54839;51.364;7.246;2023-02-08T02:55:52;17.53;;;8.50;;
68050;SDS011;54839;51.364;7.246;2023-02-08T02:58:26;9.03;;;7.03;;
68050;SDS011;54839;51.364;7.246;2023-02-08T03:00:56;7.90;;;6.60;;
68050;SDS011;54839;51.364;7.246;2023-02-08T03:03:24;11.63;;;7.57;;
68050;SDS011;54839;51.364;7.246;2023-02-08T03:05:52;11.57;;;7.47;;
68050;SDS011;54839;51.364;7.246;2023-02-08T03:11:06;10.47;;;7.10;;
68050;SDS011;54839;51.364;7.246;2023-02-08T03:13:55;13.70;;;8.97;;
68050;SDS011;54839;51.364;7.246;2023-02-08T03:22:04;10.03;;;6.93;;
68050;SDS011;54839;51.364;7.246;2023-02-08T03:35:40;10.97;;;7.43;;
68050;SDS011;54839;51.364;7.246;2023-02-08T03:38:20;10.00;;;6.70;;
68050;SDS011;54839;51.364;7.246;2023-02-08T03:40:51;10.30;;;6.83;;
68050;SDS011;54839;51.364;7.246;2023-02-08T03:43:24;9.30;;;7.47;;
68050;SDS011;54839;51.364;7.246;2023-02-08T03:46:05;8.83;;;6.63;;
68050;SDS011;54839;51.364;7.246;2023-02-08T03:48:41;10.03;;;6.17;;
68050;SDS011;54839;51.364;7.246;2023-02-08T03:51:11;7.43;;;6.50;;
68050;SDS011;54839;51.364;7.246;2023-02-08T03:53:40;9.40;;;6.43;;
68050;SDS011;54839;51.364;7.246;2023-02-08T03:56:13;10.70;;;6.00;;
68050;SDS011;54839;51.364;7.246;2023-02-08T03:58:45;11.00;;;6.57;;
68050;SDS011;54839;51.364;7.246;2023-02-08T04:01:22;10.40;;;6.00;;
68050;SDS011;54839;51.364;7.246;2023-02-08T04:03:54;8.90;;;7.10;;
68050;SDS011;54839;51.364;7.246;2023-02-08T04:06:22;8.70;;;7.23;;
68050;SDS011;54839;51.364;7.246;2023-02-08T04:08:48;12.60;;;7.53;;
68050;SDS011;54839;51.364;7.246;2023-02-08T04:11:14;10.63;;;7.30;;
68050;SDS011;54839;51.364;7.246;2023-02-08T04:13:40;8.23;;;6.00;;
68050;SDS011;54839;51.364;7.246;2023-02-08T04:16:06;7.87;;;5.90;;
68050;SDS011;54839;51.364;7.246;2023-02-08T04:18:31;7.80;;;5.40;;
68050;SDS011;54839;51.364;7.246;2023-02-08T04:20:57;8.60;;;5.93;;
68050;SDS011;54839;51.364;7.246;2023-02-08T04:23:22;6.60;;;5.80;;
68050;SDS011;54839;51.364;7.246;2023-02-08T04:25:48;7.37;;;6.27;;
68050;SDS011;54839;51.364;7.246;2023-02-08T04:28:13;10.60;;;5.97;;
68050;SDS011;54839;51.364;7.246;2023-02-08T04:30:39;9.50;;;6.83;;
68050;SDS011;54839;51.364;7.246;2023-02-08T04:33:04;8.33;;;6.40;;
68050;SDS011;54839;51.364;7.246;2023-02-08T04:35:30;13.40;;;6.30;;
68050;SDS011;54839;51.364;7.246;2023-02-08T04:37:55;6.57;;;4.83;;
68050;SDS011;54839;51.364;7.246;2023-02-08T04:40:21;9.43;;;5.50;;
68050;SDS011;54839;51.364;7.246;2023-02-08T04:42:46;7.43;;;4.87;;
68050;SDS011;54839;51.364;7.246;2023-02-08T04:45:12;9.17;;;6.23;;
68050;SDS011;54839;51.364;7.246;2023-02-08T04:47:37;8.53;;;5.30;;
68050;SDS011;54839;51.364;7.246;2023-02-08T04:50:03;6.43;;;5.73;;
68050;SDS011;54839;51.364;7.246;2023-02-08T04:52:29;13.03;;;6.17;;
68050;SDS011;54839;51.364;7.246;2023-02-08T04:54:55;8.27;;;5.47;;
68050;SDS011;54839;51.364;7.246;2023-02-08T04:57:20;14.00;;;5.97;;
68050;SDS011;54839;51.364;7.246;2023-02-08T04:59:46;8.50;;;5.50;;
68050;SDS011;54839;51.364;7.246;2023-02-08T05:02:11;11.17;;;5.40;;
68050;SDS011;54839;51.364;7.246;2023-02-08T05:04:37;9.47;;;5.30;;
68050;SDS011;54839;51.364;7.246;2023-02-08T05:07:02;8.27;;;5.53;;
68050;SDS011;54839;51.364;7.246;2023-02-08T05:09:29;11.33;;;5.60;;
68050;SDS011;54839;51.364;7.246;2023-02-08T05:11:55;20.50;;;7.40;;
68050;SDS011;54839;51.364;7.246;2023-02-08T05:14:20;12.63;;;6.40;;
68050;SDS011;54839;51.364;7.246;2023-02-08T05:16:46;12.50;;;5.50;;
68050;SDS011;54839;51.364;7.246;2023-02-08T05:19:11;10.20;;;6.50;;
68050;SDS011;54839;51.364;7.246;2023-02-08T05:21:37;15.40;;;6.40;;
68050;SDS011;54839;51.364;7.246;2023-02-08T05:24:02;8.93;;;5.80;;
68050;SDS011;54839;51.364;7.246;2023-02-08T05:26:28;14.10;;;5.97;;
68050;SDS011;54839;51.364;7.246;2023-02-08T05:28:54;9.70;;;5.70;;
68050;SDS011;54839;51.364;7.246;2023-02-08T05:31:20;14.63;;;5.97;;
68050;SDS011;54839;51.364;7.246;2023-02-08T05:33:47;8.30;;;6.47;;
68050;SDS011;54839;51.364;7.246;2023-02-08T05:36:14;9.67;;;6.50;;
68050;SDS011;54839;51.364;7.246;2023-02-08T05:38:40;10.37;;;6.00;;
68050;SDS011;54839;51.364;7.246;2023-02-08T05:41:05;10.60;;;5.67;;
68050;SDS011;54839;51.364;7.246;2023-02-08T05:43:31;12.07;;;6.07;;
68050;SDS011;54839;51.364;7.246;2023-02-08T05:45:57;8.60;;;5.40;;
68050;SDS011;54839;51.364;7.246;2023-02-08T05:48:22;13.50;;;6.93;;
68050;SDS011;54839;51.364;7.246;2023-02-08T05:50:48;11.50;;;6.27;;
68050;SDS011;54839;51.364;7.246;2023-02-08T05:53:13;15.50;;;7.57;;
68050;SDS011;54839;51.364;7.246;2023-02-08T05:55:39;9.67;;;6.40;;
68050;SDS011;54839;51.364;7.246;2023-02-08T05:58:08;9.93;;;7.23;;
68050;SDS011;54839;51.364;7.246;2023-02-08T06:00:34;12.13;;;5.83;;
68050;SDS011;54839;51.364;7.246;2023-02-08T06:02:59;9.43;;;5.57;;
68050;SDS011;54839;51.364;7.246;2023-02-08T06:05:25;15.57;;;7.10;;
68050;SDS011;54839;51.364;7.246;2023-02-08T06:07:50;11.70;;;6.77;;
68050;SDS011;54839;51.364;7.246;2023-02-08T06:10:16;12.60;;;7.03;;
68050;SDS011;54839;51.364;7.246;2023-02-08T06:12:42;14.60;;;6.30;;
68050;SDS011;54839;51.364;7.246;2023-02-08T06:15:07;13.77;;;6.73;;
68050;SDS011;54839;51.364;7.246;2023-02-08T06:17:33;8.43;;;6.00;;
68050;SDS011;54839;51.364;7.246;2023-02-08T06:19:59;15.23;;;7.70;;
68050;SDS011;54839;51.364;7.246;2023-02-08T06:22:24;9.97;;;5.93;;
68050;SDS011;54839;51.364;7.246;2023-02-08T06:24:50;12.80;;;6.03;;
68050;SDS011;54839;51.364;7.246;2023-02-08T06:27:15;9.90;;;6.50;;
68050;SDS011;54839;51.364;7.246;2023-02-08T06:29:41;11.53;;;6.37;;
68050;SDS011;54839;51.364;7.246;2023-02-08T06:32:06;16.67;;;7.40;;
68050;SDS011;54839;51.364;7.246;2023-02-08T06:34:32;9.93;;;6.20;;
68050;SDS011;54839;51.364;7.246;2023-02-08T06:36:57;10.73;;;7.07;;
68050;SDS011;54839;51.364;7.246;2023-02-08T06:39:28;9.13;;;6.00;;
68050;SDS011;54839;51.364;7.246;2023-02-08T06:41:53;10.27;;;5.77;;
68050;SDS011;54839;51.364;7.246;2023-02-08T06:44:19;14.03;;;8.10;;
68050;SDS011;54839;51.364;7.246;2023-02-08T06:46:45;11.27;;;5.40;;
68050;SDS011;54839;51.364;7.246;2023-02-08T06:49:10;8.13;;;5.70;;
68050;SDS011;54839;51.364;7.246;2023-02-08T06:51:36;16.70;;;7.27;;
68050;SDS011;54839;51.364;7.246;2023-02-08T06:54:01;16.73;;;7.50;;
68050;SDS011;54839;51.364;7.246;2023-02-08T06:56:27;23.40;;;7.87;;
68050;SDS011;54839;51.364;7.246;2023-02-08T06:58:52;15.53;;;7.03;;
68050;SDS011;54839;51.364;7.246;2023-02-08T07:01:18;15.70;;;7.27;;
68050;SDS011;54839;51.364;7.246;2023-02-08T07:03:43;40.10;;;7.80;;
68050;SDS011;54839;51.364;7.246;2023-02-08T07:06:13;12.23;;;9.03;;
68050;SDS011;54839;51.364;7.246;2023-02-08T07:08:39;12.80;;;7.37;;
68050;SDS011;54839;51.364;7.246;2023-02-08T07:11:06;11.83;;;8.10;;
68050;SDS011;54839;51.364;7.246;2023-02-08T07:13:34;17.83;;;7.30;;
68050;SDS011;54839;51.364;7.246;2023-02-08T07:16:00;10.40;;;6.87;;
68050;SDS011;54839;51.364;7.246;2023-02-08T07:18:25;16.17;;;7.80;;
68050;SDS011;54839;51.364;7.246;2023-02-08T07:20:51;15.47;;;8.10;;
68050;SDS011;54839;51.364;7.246;2023-02-08T07:23:17;16.00;;;6.73;;
68050;SDS011;54839;51.364;7.246;2023-02-08T07:25:42;12.53;;;6.43;;
68050;SDS011;54839;51.364;7.246;2023-02-08T07:28:08;10.93;;;7.10;;
68050;SDS011;54839;51.364;7.246;2023-02-08T07:30:33;24.10;;;7.57;;
68050;SDS011;54839;51.364;7.246;2023-02-08T07:32:59;10.30;;;7.70;;
68050;SDS011;54839;51.364;7.246;2023-02-08T07:35:24;21.30;;;7.60;;
68050;SDS011;54839;51.364;7.246;2023-02-08T07:37:50;25.40;;;6.87;;
68050;SDS011;54839;51.364;7.246;2023-02-08T07:40:15;16.63;;;7.03;;
68050;SDS011;54839;51.364;7.246;2023-02-08T07:42:41;32.33;;;9.43;;
68050;SDS011;54839;51.364;7.246;2023-02-08T07:45:07;15.37;;;6.23;;
68050;SDS011;54839;51.364;7.246;2023-02-08T07:47:32;18.33;;;6.67;;
68050;SDS011;54839;51.364;7.246;2023-02-08T07:49:58;21.13;;;6.07;;
68050;SDS011;54839;51.364;7.246;2023-02-08T07:52:23;12.07;;;6.07;;
68050;SDS011;54839;51.364;7.246;2023-02-08T07:54:49;10.20;;;6.10;;
68050;SDS011;54839;51.364;7.246;2023-02-08T07:57:14;8.23;;;6.40;;
68050;SDS011;54839;51.364;7.246;2023-02-08T07:59:45;13.10;;;6.30;;
68050;SDS011;54839;51.364;7.246;2023-02-08T08:02:11;13.03;;;6.13;;
68050;SDS011;54839;51.364;7.246;2023-02-08T08:04:38;20.93;;;6.67;;
68050;SDS011;54839;51.364;7.246;2023-02-08T08:07:04;63.20;;;13.20;;
68050;SDS011;54839;51.364;7.246;2023-02-08T08:09:29;13.40;;;6.80;;
68050;SDS011;54839;51.364;7.246;2023-02-08T08:11:55;14.53;;;6.53;;
68050;SDS011;54839;51.364;7.246;2023-02-08T08:14:20;24.80;;;7.77;;
68050;SDS011;54839;51.364;7.246;2023-02-08T08:16:46;18.03;;;7.33;;
68050;SDS011;54839;51.364;7.246;2023-02-08T08:19:11;8.43;;;5.87;;
68050;SDS011;54839;51.364;7.246;2023-02-08T08:21:37;9.77;;;6.63;;
68050;SDS011;54839;51.364;7.246;2023-02-08T08:24:05;8.23;;;6.30;;
68050;SDS011;54839;51.364;7.246;2023-02-08T08:26:31;12.00;;;5.80;;
68050;SDS011;54839;51.364;7.246;2023-02-08T08:28:56;10.67;;;5.87;;
68050;SDS011;54839;51.364;7.246;2023-02-08T08:31:22;20.77;;;7.20;;
68050;SDS011;54839;51.364;7.246;2023-02-08T08:33:48;16.23;;;7.67;;
68050;SDS011;54839;51.364;7.246;2023-02-08T08:36:14;12.30;;;7.30;;
68050;SDS011;54839;51.364;7.246;2023-02-08T08:38:39;8.70;;;6.27;;
68050;SDS011;54839;51.364;7.246;2023-02-08T08:41:12;9.07;;;6.80;;
68050;SDS011;54839;51.364;7.246;2023-02-08T08:43:41;15.07;;;6.40;;
68050;SDS011;54839;51.364;7.246;2023-02-08T08:46:07;21.17;;;8.27;;
68050;SDS011;54839;51.364;7.246;2023-02-08T08:48:34;13.10;;;7.67;;
68050;SDS011;54839;51.364;7.246;2023-02-08T08:51:00;21.03;;;8.37;;
68050;SDS011;54839;51.364;7.246;2023-02-08T08:53:26;20.77;;;8.10;;
68050;SDS011;54839;51.364;7.246;2023-02-08T08:55:52;10.53;;;7.50;;
68050;SDS011;54839;51.364;7.246;2023-02-08T08:58:17;13.57;;;7.30;;
68050;SDS011;54839;51.364;7.246;2023-02-08T09:00:43;17.00;;;7.40;;
68050;SDS011;54839;51.364;7.246;2023-02-08T09:03:09;18.47;;;11.63;;
68050;SDS011;54839;51.364;7.246;2023-02-08T09:05:35;14.10;;;8.00;;
68050;SDS011;54839;51.364;7.246;2023-02-08T09:08:00;11.43;;;7.80;;
68050;SDS011;54839;51.364;7.246;2023-02-08T09:10:27;12.20;;;7.87;;
68050;SDS011;54839;51.364;7.246;2023-02-08T09:12:53;9.93;;;7.73;;
68050;SDS011;54839;51.364;7.246;2023-02-08T09:15:19;12.40;;;7.33;;
68050;SDS011;54839;51.364;7.246;2023-02-08T09:17:45;10.43;;;6.97;;
68050;SDS011;54839;51.364;7.246;2023-02-08T09:20:10;11.53;;;5.60;;
68050;SDS011;54839;51.364;7.246;2023-02-08T09:22:36;15.43;;;8.27;;
68050;SDS011;54839;51.364;7.246;2023-02-08T09:25:02;13.00;;;7.00;;
68050;SDS011;54839;51.364;7.246;2023-02-08T09:27:28;10.63;;;6.97;;
68050;SDS011;54839;51.364;7.246;2023-02-08T09:29:54;13.07;;;6.53;;
68050;SDS011;54839;51.364;7.246;2023-02-08T09:32:19;8.83;;;7.13;;
68050;SDS011;54839;51.364;7.246;2023-02-08T09:34:47;18.63;;;8.30;;
68050;SDS011;54839;51.364;7.246;2023-02-08T09:37:12;11.87;;;7.53;;
68050;SDS011;54839;51.364;7.246;2023-02-08T09:39:41;17.73;;;7.97;;
68050;SDS011;54839;51.364;7.246;2023-02-08T09:42:23;14.50;;;9.23;;
68050;SDS011;54839;51.364;7.246;2023-02-08T09:51:18;9.10;;;6.53;;
68050;SDS011;54839;51.364;7.246;2023-02-08T09:53:45;16.93;;;7.93;;
68050;SDS011;54839;51.364;7.246;2023-02-08T09:56:15;10.93;;;6.43;;
68050;SDS011;54839;51.364;7.246;2023-02-08T09:58:46;9.33;;;5.90;;
68050;SDS011;54839;51.364;7.246;2023-02-08T10:01:16;10.47;;;6.43;;
68050;SDS011;54839;51.364;7.246;2023-02-08T10:03:46;6.80;;;5.43;;
68050;SDS011;54839;51.364;7.246;2023-02-08T10:06:15;18.00;;;7.97;;
68050;SDS011;54839;51.364;7.246;2023-02-08T10:08:42;16.10;;;6.47;;
68050;SDS011;54839;51.364;7.246;2023-02-08T10:11:33;13.70;;;6.47;;
68050;SDS011;54839;51.364;7.246;2023-02-08T10:17:29;9.60;;;6.73;;
68050;SDS011;54839;51.364;7.246;2023-02-08T10:20:18;12.03;;;7.20;;
68050;SDS011;54839;51.364;7.246;2023-02-08T10:23:12;9.70;;;6.70;;
68050;SDS011;54839;51.364;7.246;2023-02-08T10:26:08;8.40;;;6.17;;
68050;SDS011;54839;51.364;7.246;2023-02-08T10:28:43;8.90;;;6.13;;
68050;SDS011;54839;51.364;7.246;2023-02-08T10:33:54;8.43;;;6.10;;
68050;SDS011;54839;51.364;7.246;2023-02-08T10:36:42;9.67;;;6.13;;
68050;SDS011;54839;51.364;7.246;2023-02-08T10:39:50;7.70;;;6.00;;
68050;SDS011;54839;51.364;7.246;2023-02-08T10:41:58;13.77;;;5.60;;
68050;SDS011;54839;51.364;7.246;2023-02-08T10:44:26;9.70;;;6.60;;
68050;SDS011;54839;51.364;7.246;2023-02-08T10:47:06;9.80;;;6.37;;
68050;SDS011;54839;51.364;7.246;2023-02-08T10:50:06;11.80;;;6.67;;
68050;SDS011;54839;51.364;7.246;2023-02-08T10:52:55;8.87;;;6.17;;
68050;SDS011;54839;51.364;7.246;2023-02-08T10:55:21;13.60;;;6.23;;
68050;SDS011;54839;51.364;7.246;2023-02-08T10:57:47;6.40;;;5.80;;
68050;SDS011;54839;51.364;7.246;2023-02-08T11:00:20;9.33;;;5.93;;
68050;SDS011;54839;51.364;7.246;2023-02-08T11:02:58;8.20;;;4.70;;
68050;SDS011;54839;51.364;7.246;2023-02-08T11:05:34;8.53;;;5.10;;
68050;SDS011;54839;51.364;7.246;2023-02-08T11:08:05;9.80;;;6.50;;
68050;SDS011;54839;51.364;7.246;2023-02-08T11:10:39;8.03;;;6.00;;
68050;SDS011;54839;51.364;7.246;2023-02-08T11:15:38;8.50;;;5.37;;
68050;SDS011;54839;51.364;7.246;2023-02-08T11:18:38;9.17;;;6.20;;
68050;SDS011;54839;51.364;7.246;2023-02-08T11:21:04;7.77;;;5.00;;
68050;SDS011;54839;51.364;7.246;2023-02-08T11:23:32;7.97;;;4.60;;
68050;SDS011;54839;51.364;7.246;2023-02-08T11:28:57;6.60;;;5.10;;
68050;SDS011;54839;51.364;7.246;2023-02-08T11:31:23;6.23;;;4.07;;
68050;SDS011;54839;51.364;7.246;2023-02-08T11:34:05;4.50;;;3.30;;
68050;SDS011;54839;51.364;7.246;2023-02-08T11:36:36;13.73;;;4.73;;
68050;SDS011;54839;51.364;7.246;2023-02-08T11:39:24;10.00;;;4.37;;
68050;SDS011;54839;51.364;7.246;2023-02-08T11:41:54;14.00;;;5.00;;
68050;SDS011;54839;51.364;7.246;2023-02-08T11:44:25;22.57;;;5.27;;
68050;SDS011;54839;51.364;7.246;2023-02-08T11:47:06;4.80;;;3.17;;
68050;SDS011;54839;51.364;7.246;2023-02-08T11:49:40;4.70;;;3.43;;
68050;SDS011;54839;51.364;7.246;2023-02-08T11:55:26;5.40;;;2.70;;
68050;SDS011;54839;51.364;7.246;2023-02-08T12:00:26;7.33;;;2.83;;
68050;SDS011;54839;51.364;7.246;2023-02-08T12:03:36;5.67;;;2.77;;
68050;SDS011;54839;51.364;7.246;2023-02-08T12:08:26;10.03;;;2.63;;
68050;SDS011;54839;51.364;7.246;2023-02-08T12:11:13;3.10;;;2.50;;
68050;SDS011;54839;51.364;7.246;2023-02-08T12:17:14;13.93;;;3.70;;
68050;SDS011;54839;51.364;7.246;2023-02-08T12:22:20;1.33;;;1.20;;
68050;SDS011;54839;51.364;7.246;2023-02-08T12:24:50;4.03;;;2.30;;
68050;SDS011;54839;51.364;7.246;2023-02-08T12:30:18;2.07;;;1.77;;
68050;SDS011;54839;51.364;7.246;2023-02-08T12:35:54;13.90;;;3.47;;
68050;SDS011;54839;51.364;7.246;2023-02-08T12:39:04;8.23;;;3.40;;
68050;SDS011;54839;51.364;7.246;2023-02-08T12:42:19;9.40;;;2.20;;
68050;SDS011;54839;51.364;7.246;2023-02-08T12:55:54;2.03;;;1.83;;
68050;SDS011;54839;51.364;7.246;2023-02-08T12:58:30;2.90;;;1.70;;
68050;SDS011;54839;51.364;7.246;2023-02-08T13:04:13;3.40;;;2.20;;
68050;SDS011;54839;51.364;7.246;2023-02-08T13:06:42;4.97;;;2.40;;
68050;SDS011;54839;51.364;7.246;2023-02-08T13:12:05;4.83;;;1.97;;
68050;SDS011;54839;51.364;7.246;2023-02-08T13:22:39;4.53;;;1.83;;
68050;SDS011;54839;51.364;7.246;2023-02-08T13:25:08;2.50;;;2.30;;
68050;SDS011;54839;51.364;7.246;2023-02-08T13:27:40;3.17;;;2.73;;
68050;SDS011;54839;51.364;7.246;2023-02-08T13:30:06;4.80;;;3.83;;
68050;SDS011;54839;51.364;7.246;2023-02-08T13:32:42;4.83;;;4.17;;
68050;SDS011;54839;51.364;7.246;2023-02-08T13:37:57;8.03;;;4.50;;
68050;SDS011;54839;51.364;7.246;2023-02-08T13:40:34;3.50;;;3.17;;
68050;SDS011;54839;51.364;7.246;2023-02-08T13:43:05;24.00;;;8.30;;
68050;SDS011;54839;51.364;7.246;2023-02-08T13:45:50;5.40;;;3.93;;
68050;SDS011;54839;51.364;7.246;2023-02-08T13:48:17;13.77;;;4.43;;
68050;SDS011;54839;51.364;7.246;2023-02-08T13:53:10;9.60;;;4.00;;
68050;SDS011;54839;51.364;7.246;2023-02-08T13:55:50;8.37;;;3.97;;
68050;SDS011;54839;51.364;7.246;2023-02-08T13:58:27;36.87;;;7.00;;
68050;SDS011;54839;51.364;7.246;2023-02-08T14:01:01;8.70;;;3.83;;
68050;SDS011;54839;51.364;7.246;2023-02-08T14:03:31;5.53;;;3.10;;
68050;SDS011;54839;51.364;7.246;2023-02-08T14:05:58;5.83;;;3.87;;
68050;SDS011;54839;51.364;7.246;2023-02-08T14:13:57;7.90;;;4.30;;
68050;SDS011;54839;51.364;7.246;2023-02-08T14:16:40;4.33;;;3.80;;
68050;SDS011;54839;51.364;7.246;2023-02-08T14:21:42;12.87;;;5.20;;
68050;SDS011;54839;51.364;7.246;2023-02-08T14:24:31;9.87;;;5.80;;
68050;SDS011;54839;51.364;7.246;2023-02-08T14:27:34;8.77;;;3.50;;
68050;SDS011;54839;51.364;7.246;2023-02-08T14:30:00;21.57;;;6.17;;
68050;SDS011;54839;51.364;7.246;2023-02-08T14:32:33;28.53;;;8.33;;
68050;SDS011;54839;51.364;7.246;2023-02-08T14:37:44;15.03;;;5.00;;
68050;SDS011;54839;51.364;7.246;2023-02-08T14:45:45;5.37;;;4.47;;
68050;SDS011;54839;51.364;7.246;2023-02-08T14:50:44;27.23;;;8.63;;
68050;SDS011;54839;51.364;7.246;2023-02-08T14:53:20;9.10;;;3.57;;
68050;SDS011;54839;51.364;7.246;2023-02-08T14:55:57;6.93;;;3.87;;
68050;SDS011;54839;51.364;7.246;2023-02-08T14:58:29;3.93;;;3.53;;
68050;SDS011;54839;51.364;7.246;2023-02-08T15:01:05;15.77;;;5.43;;
68050;SDS011;54839;51.364;7.246;2023-02-08T15:03:35;18.83;;;4.97;;
68050;SDS011;54839;51.364;7.246;2023-02-08T15:08:49;11.80;;;4.40;;
68050;SDS011;54839;51.364;7.246;2023-02-08T15:11:20;8.03;;;4.13;;
68050;SDS011;54839;51.364;7.246;2023-02-08T15:13:49;5.50;;;4.60;;
68050;SDS011;54839;51.364;7.246;2023-02-08T15:16:18;13.40;;;5.00;;
68050;SDS011;54839;51.364;7.246;2023-02-08T15:18:44;8.20;;;3.90;;
68050;SDS011;54839;51.364;7.246;2023-02-08T15:21:18;15.53;;;8.33;;
68050;SDS011;54839;51.364;7.246;2023-02-08T15:23:57;4.53;;;4.10;;
68050;SDS011;54839;51.364;7.246;2023-02-08T15:26:24;6.43;;;4.10;;
68050;SDS011;54839;51.364;7.246;2023-02-08T15:28:50;6.97;;;3.57;;
68050;SDS011;54839;51.364;7.246;2023-02-08T15:31:17;4.03;;;3.63;;
68050;SDS011;54839;51.364;7.246;2023-02-08T15:33:51;9.27;;;3.90;;
68050;SDS011;54839;51.364;7.246;2023-02-08T15:36:28;5.43;;;4.40;;
68050;SDS011;54839;51.364;7.246;2023-02-08T15:39:00;6.57;;;4.23;;
68050;SDS011;54839;51.364;7.246;2023-02-08T15:41:33;5.90;;;4.50;;
68050;SDS011;54839;51.364;7.246;2023-02-08T15:44:13;26.73;;;7.50;;
68050;SDS011;54839;51.364;7.246;2023-02-08T15:46:53;8.50;;;4.40;;
68050;SDS011;54839;51.364;7.246;2023-02-08T15:49:23;11.50;;;4.47;;
68050;SDS011;54839;51.364;7.246;2023-02-08T15:51:55;6.80;;;4.23;;
68050;SDS011;54839;51.364;7.246;2023-02-08T15:54:22;4.73;;;3.80;;
68050;SDS011;54839;51.364;7.246;2023-02-08T15:56:49;7.10;;;5.53;;
68050;SDS011;54839;51.364;7.246;2023-02-08T15:59:23;8.33;;;4.37;;
68050;SDS011;54839;51.364;7.246;2023-02-08T16:01:51;31.43;;;7.50;;
68050;SDS011;54839;51.364;7.246;2023-02-08T16:04:18;4.57;;;3.40;;
68050;SDS011;54839;51.364;7.246;2023-02-08T16:06:48;5.53;;;4.20;;
68050;SDS011;54839;51.364;7.246;2023-02-08T16:09:20;20.00;;;5.13;;
68050;SDS011;54839;51.364;7.246;2023-02-08T16:11:52;5.20;;;3.90;;
68050;SDS011;54839;51.364;7.246;2023-02-08T16:14:22;8.60;;;4.53;;
68050;SDS011;54839;51.364;7.246;2023-02-08T16:16:50;7.40;;;4.43;;
68050;SDS011;54839;51.364;7.246;2023-02-08T16:19:23;8.27;;;4.07;;
68050;SDS011;54839;51.364;7.246;2023-02-08T16:21:48;8.67;;;7.87;;
68050;SDS011;54839;51.364;7.246;2023-02-08T16:26:41;8.20;;;5.17;;
68050;SDS011;54839;51.364;7.246;2023-02-08T16:31:41;7.53;;;4.70;;
68050;SDS011;54839;51.364;7.246;2023-02-08T16:34:13;7.63;;;4.57;;
68050;SDS011;54839;51.364;7.246;2023-02-08T16:36:42;9.97;;;4.07;;
68050;SDS011;54839;51.364;7.246;2023-02-08T16:46:49;6.93;;;3.63;;
68050;SDS011;54839;51.364;7.246;2023-02-08T16:49:15;9.37;;;3.97;;
68050;SDS011;54839;51.364;7.246;2023-02-08T16:51:41;12.30;;;4.50;;
68050;SDS011;54839;51.364;7.246;2023-02-08T16:54:13;10.13;;;3.87;;
68050;SDS011;54839;51.364;7.246;2023-02-08T16:56:42;9.67;;;3.80;;
68050;SDS011;54839;51.364;7.246;2023-02-08T16:59:10;8.87;;;4.20;;
68050;SDS011;54839;51.364;7.246;2023-02-08T17:01:37;7.50;;;4.63;;
68050;SDS011;54839;51.364;7.246;2023-02-08T17:04:03;12.27;;;4.07;;
68050;SDS011;54839;51.364;7.246;2023-02-08T17:06:33;10.57;;;5.37;;
68050;SDS011;54839;51.364;7.246;2023-02-08T17:09:00;14.83;;;5.77;;
68050;SDS011;54839;51.364;7.246;2023-02-08T17:11:27;9.17;;;5.27;;
68050;SDS011;54839;51.364;7.246;2023-02-08T17:13:53;7.77;;;5.20;;
68050;SDS011;54839;51.364;7.246;2023-02-08T17:16:21;7.00;;;3.97;;
68050;SDS011;54839;51.364;7.246;2023-02-08T17:18:48;15.40;;;6.10;;